createdAt,value
2018-11-22T00:01:28.834Z,92.81
2018-11-22T00:03:56.032Z,92.61
2018-11-22T00:06:23.486Z,92.61
2018-11-22T00:08:50.364Z,92.84
2018-11-22T00:11:17.590Z,92.83
2018-11-22T00:13:44.878Z,93.22
2018-11-22T00:16:12.161Z,93.01
2018-11-22T00:18:39.008Z,92.45
2018-11-22T00:21:05.830Z,92.47
2018-11-22T00:23:32.741Z,91.94
2018-11-22T00:25:59.613Z,91.39
2018-11-22T00:28:27.139Z,91.04
2018-11-22T00:30:54.300Z,90.87
2018-11-22T00:33:21.845Z,91.37
2018-11-22T00:35:48.964Z,91.25
2018-11-22T00:38:15.871Z,91.22
2018-11-22T00:40:43.343Z,91.54
2018-11-22T00:43:10.581Z,92.48
2018-11-22T00:45:38.009Z,92.48
2018-11-22T00:48:04.972Z,92.26
2018-11-22T00:50:33.170Z,92.16
2018-11-22T00:53:00.098Z,92.22
2018-11-22T00:55:31.864Z,92.19
2018-11-22T00:57:59.104Z,92.09
2018-11-22T01:00:27.339Z,92.07
2018-11-22T01:02:54.334Z,92.75
2018-11-22T01:05:22.252Z,92.64
2018-11-22T01:07:49.386Z,92.72
2018-11-22T01:10:22.090Z,92.66
2018-11-22T01:12:53.485Z,92.54
2018-11-22T01:15:21.122Z,92.54
2018-11-22T01:17:48.351Z,93.13
2018-11-22T01:20:16.970Z,92.87
2018-11-22T01:22:45.465Z,92.48
2018-11-22T01:25:31.904Z,92.48
2018-11-22T01:27:59.099Z,92.41
2018-11-22T01:30:26.386Z,92.04
2018-11-22T01:32:54.578Z,92.44
2018-11-22T01:35:22.307Z,92.62
2018-11-22T01:37:49.638Z,92.06
2018-11-22T01:40:17.759Z,91.61
2018-11-22T01:42:45.309Z,92.11
2018-11-22T01:45:13.693Z,92.32
2018-11-22T01:47:40.857Z,92.62
2018-11-22T01:50:09.497Z,92.74
2018-11-22T01:52:37.192Z,92.60
2018-11-22T01:55:05.457Z,91.99
2018-11-22T01:57:32.670Z,91.79
2018-11-22T01:59:59.573Z,91.54
2018-11-22T02:02:26.717Z,91.56
2018-11-22T02:04:53.630Z,91.46
2018-11-22T02:07:20.795Z,91.34
2018-11-22T02:09:47.635Z,91.09
2018-11-22T02:12:14.759Z,90.80
2018-11-22T02:14:43.074Z,91.05
2018-11-22T02:17:09.951Z,91.62
2018-11-22T02:19:37.166Z,91.97
2018-11-22T02:22:04.273Z,91.46
2018-11-22T02:24:31.660Z,91.24
2018-11-22T02:26:59.179Z,91.79
2018-11-22T02:29:26.280Z,91.18
2018-11-22T02:31:53.503Z,91.06
2018-11-22T02:34:20.728Z,90.99
2018-11-22T02:36:55.712Z,90.84
2018-11-22T02:39:22.908Z,90.86
2018-11-22T02:41:50.437Z,91.20
2018-11-22T02:44:17.693Z,91.63
2018-11-22T02:46:44.600Z,91.74
2018-11-22T02:49:13.982Z,91.81
2018-11-22T02:51:40.864Z,91.91
2018-11-22T02:54:08.075Z,91.91
2018-11-22T02:56:35.623Z,91.45
2018-11-22T02:59:02.482Z,92.05
2018-11-22T03:01:29.369Z,92.12
2018-11-22T03:03:57.106Z,91.95
2018-11-22T03:06:23.951Z,92.09
2018-11-22T03:08:51.177Z,92.23
2018-11-22T03:11:18.462Z,92.74
2018-11-22T03:13:45.718Z,92.74
2018-11-22T03:16:12.975Z,92.99
2018-11-22T03:18:39.906Z,93.08
2018-11-22T03:21:06.753Z,93.41
2018-11-22T03:23:34.050Z,93.41
2018-11-22T03:26:01.810Z,93.43
2018-11-22T03:28:28.612Z,92.81
2018-11-22T03:30:56.214Z,92.81
2018-11-22T03:33:29.249Z,92.64
2018-11-22T03:35:56.070Z,92.44
2018-11-22T03:38:23.298Z,92.72
2018-11-22T03:40:50.520Z,92.31
2018-11-22T03:43:21.313Z,92.09
2018-11-22T03:45:48.456Z,92.09
2018-11-22T03:48:15.999Z,92.29
2018-11-22T03:50:42.836Z,92.27
2018-11-22T03:53:10.005Z,92.37
2018-11-22T03:55:37.970Z,92.38
2018-11-22T03:58:05.060Z,91.36
2018-11-22T04:00:32.620Z,91.45
2018-11-22T04:02:59.514Z,91.64
2018-11-22T04:05:29.580Z,91.14
2018-11-22T04:07:56.397Z,91.07
2018-11-22T04:10:30.397Z,91.05
2018-11-22T04:13:00.459Z,91.95
2018-11-22T04:15:27.521Z,91.80
2018-11-22T04:17:55.258Z,92.42
2018-11-22T04:20:26.690Z,92.34
2018-11-22T04:22:53.993Z,92.34
2018-11-22T04:25:21.302Z,92.37
2018-11-22T04:27:48.490Z,92.70
2018-11-22T04:30:17.964Z,91.90
2018-11-22T04:32:45.841Z,91.62
2018-11-22T04:35:16.393Z,91.43
2018-11-22T04:37:43.835Z,91.78
2018-11-22T04:40:18.366Z,91.05
2018-11-22T04:42:45.539Z,91.05
2018-11-22T04:45:12.820Z,89.97
2018-11-22T04:47:40.734Z,90.25
2018-11-22T04:50:09.079Z,90.49
2018-11-22T04:52:36.007Z,90.49
2018-11-22T04:55:02.873Z,90.64
2018-11-22T04:57:29.678Z,90.53
2018-11-22T04:59:57.390Z,89.97
2018-11-22T05:02:24.619Z,90.28
2018-11-22T05:04:51.539Z,90.50
2018-11-22T05:07:19.122Z,90.64
2018-11-22T05:09:46.009Z,90.91
2018-11-22T05:12:13.165Z,91.07
2018-11-22T05:14:40.703Z,91.09
2018-11-22T05:17:07.551Z,90.63
2018-11-22T05:19:34.818Z,90.79
2018-11-22T05:22:01.957Z,90.71
2018-11-22T05:24:28.977Z,90.67
2018-11-22T05:26:56.532Z,90.90
2018-11-22T05:29:23.395Z,91.15
2018-11-22T05:31:56.126Z,90.34
2018-11-22T05:34:22.969Z,90.37
2018-11-22T05:36:50.968Z,90.03
2018-11-22T05:39:18.158Z,90.04
2018-11-22T05:41:45.011Z,89.85
2018-11-22T05:44:11.825Z,89.48
2018-11-22T05:46:38.654Z,89.37
2018-11-22T05:49:06.809Z,89.63
2018-11-22T05:51:34.571Z,88.96
2018-11-22T05:54:01.959Z,89.02
2018-11-22T05:56:28.878Z,89.02
2018-11-22T05:58:55.762Z,89.17
2018-11-22T06:01:23.354Z,89.06
2018-11-22T06:03:50.375Z,89.06
2018-11-22T06:06:17.263Z,88.43
2018-11-22T06:08:44.191Z,88.65
2018-11-22T06:11:11.516Z,88.92
2018-11-22T06:13:38.986Z,88.37
2018-11-22T06:16:06.139Z,88.15
2018-11-22T06:18:34.078Z,87.93
2018-11-22T06:21:01.254Z,87.52
2018-11-22T06:23:28.079Z,87.91
2018-11-22T06:25:55.246Z,88.10
2018-11-22T06:28:22.137Z,87.92
2018-11-22T06:30:49.264Z,87.85
2018-11-22T06:33:16.384Z,87.66
2018-11-22T06:35:43.863Z,87.48
2018-11-22T06:38:10.807Z,87.54
2018-11-22T06:40:38.018Z,88.05
2018-11-22T06:43:04.975Z,88.20
2018-11-22T06:45:33.202Z,88.32
2018-11-22T06:48:00.021Z,88.21
2018-11-22T06:50:26.981Z,88.04
2018-11-22T06:52:54.049Z,87.89
2018-11-22T06:55:28.460Z,87.84
2018-11-22T06:57:55.313Z,88.08
2018-11-22T07:00:23.241Z,88.27
2018-11-22T07:02:51.160Z,88.40
2018-11-22T07:05:19.406Z,88.26
2018-11-22T07:07:46.613Z,88.26
2018-11-22T07:10:14.510Z,88.10
2018-11-22T07:12:41.690Z,87.81
2018-11-22T07:15:08.918Z,88.24
2018-11-22T07:17:36.101Z,88.20
2018-11-22T07:20:03.675Z,88.09
2018-11-22T07:22:30.849Z,87.91
2018-11-22T07:24:58.136Z,87.44
2018-11-22T07:27:24.989Z,87.61
2018-11-22T07:29:52.329Z,88.11
2018-11-22T07:32:19.170Z,88.53
2018-11-22T07:34:46.293Z,88.51
2018-11-22T07:37:13.168Z,88.11
2018-11-22T07:39:40.719Z,87.76
2018-11-22T07:42:07.905Z,87.39
2018-11-22T07:44:35.185Z,87.42
2018-11-22T07:47:01.993Z,87.37
2018-11-22T07:49:29.367Z,87.41
2018-11-22T07:51:56.610Z,87.15
2018-11-22T07:54:23.684Z,86.89
2018-11-22T07:56:51.094Z,86.65
2018-11-22T07:59:18.293Z,86.44
2018-11-22T08:01:45.186Z,86.18
2018-11-22T08:04:12.166Z,85.85
2018-11-22T08:06:38.984Z,85.95
2018-11-22T12:17:53.197Z,43.76
2018-11-22T12:20:20.912Z,46.04
2018-11-22T12:22:49.318Z,45.91
2018-11-22T12:25:25.400Z,45.70
2018-11-22T12:27:55.097Z,45.86
2018-11-22T12:30:28.590Z,44.43
2018-11-22T12:34:02.288Z,47.13
2018-11-22T12:36:39.210Z,47.36
2018-11-22T12:39:08.059Z,46.88
2018-11-22T12:41:35.284Z,46.95
2018-11-22T12:44:02.745Z,46.00
2018-11-22T12:46:30.577Z,44.45
2018-11-22T12:49:00.339Z,45.11
2018-11-22T12:51:27.649Z,44.28
2018-11-22T12:53:59.908Z,43.18
2018-11-22T12:56:27.140Z,43.62
2018-11-22T12:58:54.426Z,45.49
2018-11-22T13:01:21.637Z,45.74
2018-11-22T13:03:48.927Z,46.11
2018-11-22T13:06:16.263Z,47.61
2018-11-22T13:08:43.512Z,49.56
2018-11-22T13:11:10.764Z,49.22
2018-11-22T13:13:38.018Z,51.46
2018-11-22T13:16:05.395Z,52.19
2018-11-22T13:18:33.065Z,51.86
2018-11-22T13:21:00.502Z,52.59
2018-11-22T13:23:27.746Z,52.87
2018-11-22T13:25:55.021Z,51.07
2018-11-22T13:28:22.324Z,49.43
2018-11-22T13:30:49.608Z,48.36
2018-11-22T13:33:16.840Z,47.75
2018-11-22T13:35:44.139Z,46.98
2018-11-22T13:38:11.380Z,46.61
2018-11-22T13:40:38.613Z,46.46
2018-11-22T13:43:05.899Z,46.97
2018-11-22T13:45:33.189Z,46.82
2018-11-22T13:48:00.408Z,46.39
2018-11-22T13:50:29.835Z,45.85
2018-11-22T13:52:58.738Z,45.00
2018-11-22T13:55:26.222Z,46.27
2018-11-22T13:57:53.520Z,46.38
2018-11-22T14:00:22.251Z,46.83
2018-11-22T14:02:50.918Z,47.10
2018-11-22T14:05:18.203Z,47.58
2018-11-22T14:07:45.537Z,47.26
2018-11-22T14:10:14.092Z,47.66
2018-11-22T14:12:41.380Z,47.11
2018-11-22T14:15:13.120Z,46.95
2018-11-22T14:17:40.738Z,46.37
2018-11-22T14:20:10.133Z,47.31
2018-11-22T14:22:37.706Z,47.20
2018-11-22T14:25:05.757Z,48.11
2018-11-22T14:27:33.026Z,48.11
2018-11-22T14:30:00.309Z,47.75
2018-11-22T14:32:27.561Z,47.71
2018-11-22T14:35:00.427Z,47.93
2018-11-22T14:37:22.064Z,48.60
2018-11-22T14:39:49.306Z,48.79
2018-11-22T14:42:16.554Z,49.12
2018-11-22T14:44:43.870Z,49.87
2018-11-22T14:47:11.063Z,50.41
2018-11-22T14:49:39.839Z,50.79
2018-11-22T14:52:07.812Z,51.06
2018-11-22T14:54:35.294Z,51.02
2018-11-22T14:57:02.531Z,51.08
2018-11-22T14:59:29.820Z,51.72
2018-11-22T15:01:57.074Z,52.05
2018-11-22T15:04:24.332Z,52.61
2018-11-22T15:06:51.616Z,52.44
2018-11-22T15:09:18.858Z,53.38
2018-11-22T15:11:46.079Z,53.18
2018-11-22T15:14:13.369Z,53.75
2018-11-22T15:16:40.647Z,53.74
2018-11-22T15:19:08.004Z,53.84
2018-11-22T15:21:35.305Z,54.64
2018-11-22T15:24:02.517Z,55.10
2018-11-22T15:26:29.802Z,55.70
2018-11-22T15:28:57.022Z,56.56
2018-11-22T15:31:24.224Z,57.82
2018-11-22T15:33:51.412Z,58.60
2018-11-22T15:36:18.615Z,59.34
2018-11-22T15:38:45.836Z,59.93
2018-11-22T15:41:13.101Z,60.39
2018-11-22T15:43:40.315Z,61.68
2018-11-22T15:46:07.569Z,62.10
2018-11-22T15:48:34.883Z,62.22
2018-11-22T15:51:02.121Z,62.75
2018-11-22T15:53:29.382Z,63.01
2018-11-22T15:55:57.201Z,64.15
2018-11-22T15:58:24.537Z,64.65
2018-11-22T16:00:51.678Z,64.83
2018-11-22T16:03:21.014Z,65.92
2018-11-22T16:05:48.293Z,65.93
2018-11-22T16:08:15.591Z,66.39
2018-11-22T16:10:42.887Z,66.84
2018-11-22T16:13:10.919Z,66.62
2018-11-22T16:15:42.433Z,66.88
2018-11-22T16:18:09.723Z,67.49
2018-11-22T16:20:38.125Z,67.51
2018-11-22T16:23:10.975Z,67.69
2018-11-22T16:25:38.278Z,67.39
2018-11-22T16:28:05.878Z,68.20
2018-11-22T16:30:33.529Z,68.59
2018-11-22T16:33:00.827Z,68.99
2018-11-22T16:35:33.225Z,68.97
2018-11-22T16:37:56.707Z,69.29
2018-11-22T16:40:25.320Z,69.26
2018-11-22T16:42:53.411Z,69.28
2018-11-22T16:45:25.997Z,70.01
2018-11-22T16:47:53.350Z,69.88
2018-11-22T16:50:22.074Z,70.76
2018-11-22T16:52:49.422Z,70.60
2018-11-22T16:55:17.010Z,70.98
2018-11-22T16:57:45.549Z,70.74
2018-11-22T17:00:18.322Z,70.79
2018-11-22T17:02:46.335Z,71.00
2018-11-22T17:05:14.232Z,71.31
2018-11-22T17:07:41.688Z,71.67
2018-11-22T17:10:10.654Z,71.62
2018-11-22T17:12:37.921Z,71.82
2018-11-22T17:15:07.527Z,71.94
2018-11-22T17:17:34.820Z,71.96
2018-11-22T17:20:02.136Z,72.35
2018-11-22T17:22:29.494Z,71.69
2018-11-22T17:24:56.779Z,72.61
2018-11-22T17:27:24.080Z,72.19
2018-11-22T17:29:51.477Z,72.75
2018-11-22T17:32:18.768Z,73.47
2018-11-22T17:34:46.145Z,74.58
2018-11-22T17:37:13.355Z,74.46
2018-11-22T17:39:40.553Z,73.62
2018-11-22T17:42:07.851Z,73.88
2018-11-22T17:44:35.110Z,73.67
2018-11-22T17:47:02.383Z,73.97
2018-11-22T17:49:29.655Z,74.56
2018-11-22T17:51:56.912Z,74.68
2018-11-22T17:54:24.157Z,74.27
2018-11-22T17:56:51.378Z,74.83
2018-11-22T17:59:18.726Z,75.69
2018-11-22T18:01:45.970Z,75.48
2018-11-22T18:04:13.275Z,75.22
2018-11-22T18:06:40.544Z,75.01
2018-11-22T18:09:09.021Z,75.51
2018-11-22T18:11:36.257Z,75.63
2018-11-22T18:14:08.859Z,75.32
2018-11-22T18:16:36.456Z,76.29
2018-11-22T18:19:03.724Z,76.42
2018-11-22T18:21:30.941Z,76.04
2018-11-22T18:23:58.213Z,75.60
2018-11-22T18:26:25.497Z,76.57
2018-11-22T18:28:52.756Z,76.44
2018-11-22T18:31:20.007Z,76.42
2018-11-22T18:36:26.842Z,76.61
2018-11-22T18:38:54.190Z,76.77
2018-11-22T18:41:21.470Z,76.88
2018-11-22T18:43:48.780Z,77.00
2018-11-22T18:46:16.095Z,76.74
2018-11-22T18:48:43.351Z,77.23
2018-11-22T18:51:10.533Z,77.82
2018-11-22T18:53:37.826Z,77.86
2018-11-22T18:56:05.166Z,78.41
2018-11-22T18:58:32.365Z,78.03
2018-11-22T19:00:59.584Z,77.91
2018-11-22T19:03:26.807Z,78.90
2018-11-22T19:05:54.102Z,78.84
2018-11-22T19:08:21.394Z,78.46
2018-11-22T19:10:48.622Z,78.68
2018-11-22T19:13:15.945Z,78.74
2018-11-22T19:15:44.629Z,78.83
2018-11-22T19:18:12.557Z,80.04
2018-11-22T19:20:41.182Z,80.02
2018-11-22T19:23:14.390Z,79.73
2018-11-22T19:25:46.674Z,79.86
2018-11-22T19:28:13.992Z,79.12
2018-11-22T19:30:42.668Z,79.49
2018-11-22T19:33:11.542Z,80.27
2018-11-22T19:35:41.529Z,79.85
2018-11-22T19:38:11.303Z,79.70
2018-11-22T19:40:39.678Z,80.08
2018-11-22T19:43:07.871Z,79.81
2018-11-22T19:45:36.699Z,80.59
2018-11-22T19:48:03.972Z,80.61
2018-11-22T19:50:31.751Z,80.58
2018-11-22T19:53:00.292Z,81.47
2018-11-22T19:55:29.945Z,81.46
2018-11-22T19:57:59.166Z,81.70
2018-11-22T20:00:27.068Z,81.89
2018-11-22T20:03:03.888Z,82.21
2018-11-22T20:05:32.627Z,82.38
2018-11-22T20:08:01.641Z,82.40
2018-11-22T20:10:34.266Z,81.92
2018-11-22T20:13:02.563Z,81.46
2018-11-22T20:15:30.160Z,81.75
2018-11-22T20:17:58.274Z,81.72
2018-11-22T20:20:26.086Z,80.73
2018-11-22T20:22:53.632Z,81.18
2018-11-22T20:25:21.097Z,81.28
2018-11-22T20:27:49.077Z,81.46
2018-11-22T20:30:20.088Z,81.65
2018-11-22T20:32:47.593Z,82.00
2018-11-22T20:35:16.086Z,81.82
2018-11-22T20:37:44.419Z,81.56
2018-11-22T20:40:12.951Z,82.06
2018-11-22T20:42:40.397Z,81.95
2018-11-22T20:45:10.539Z,81.78
2018-11-22T20:47:38.219Z,81.35
2018-11-22T20:52:43.594Z,81.48
2018-11-22T20:55:13.928Z,81.61
2018-11-22T20:57:41.338Z,82.28
2018-11-22T21:00:11.690Z,82.09
2018-11-22T21:02:38.987Z,82.79
2018-11-22T21:05:07.015Z,82.86
2018-11-22T21:07:34.268Z,82.93
2018-11-22T21:10:01.689Z,82.50
2018-11-22T21:12:29.186Z,82.19
2018-11-22T21:14:56.486Z,82.57
2018-11-22T21:17:23.822Z,82.19
2018-11-22T21:19:51.036Z,82.62
2018-11-22T21:22:18.357Z,82.84
2018-11-22T21:24:45.595Z,82.80
2018-11-22T21:27:13.060Z,82.83
2018-11-22T21:29:40.466Z,83.46
2018-11-22T21:32:07.880Z,83.81
2018-11-22T21:34:35.595Z,83.30
2018-11-22T21:37:03.064Z,83.75
2018-11-22T21:39:30.953Z,83.68
2018-11-22T21:41:58.380Z,83.57
2018-11-22T21:44:25.640Z,83.68
2018-11-22T21:47:00.270Z,83.72
2018-11-22T21:49:27.970Z,83.27
2018-11-22T21:51:55.255Z,83.05
2018-11-22T21:54:24.361Z,83.12
2018-11-22T21:56:51.828Z,83.10
2018-11-22T21:59:19.029Z,82.91
2018-11-22T22:01:48.383Z,82.59
2018-11-22T22:04:15.606Z,82.66
2018-11-22T22:06:42.890Z,82.88
2018-11-22T22:09:13.594Z,82.45
2018-11-22T22:11:40.881Z,82.43
2018-11-22T22:14:08.334Z,82.50
2018-11-22T22:16:36.411Z,82.35
2018-11-22T22:19:02.903Z,82.05
2018-11-22T22:21:30.163Z,81.98
2018-11-22T22:23:57.465Z,82.57
2018-11-22T22:26:24.686Z,82.89
2018-11-22T22:28:52.476Z,82.70
2018-11-22T22:31:19.735Z,82.59
2018-11-22T22:33:47.012Z,82.46
2018-11-22T22:36:14.157Z,82.50
2018-11-22T22:38:41.503Z,82.35
2018-11-22T22:41:08.716Z,82.54
2018-11-22T22:43:35.954Z,82.94
2018-11-22T22:46:08.067Z,83.17
2018-11-22T22:48:35.562Z,84.12
2018-11-22T22:51:02.867Z,83.94
2018-11-22T22:53:30.066Z,84.07
2018-11-22T22:55:57.333Z,84.26
2018-11-22T22:58:24.554Z,84.04
2018-11-22T23:00:51.744Z,83.96
2018-11-22T23:03:19.016Z,84.04
2018-11-22T23:05:46.301Z,84.96
2018-11-22T23:08:13.601Z,85.67
2018-11-22T23:10:40.887Z,84.81
2018-11-22T23:13:08.255Z,85.01
2018-11-22T23:15:35.582Z,86.42
2018-11-22T23:18:02.917Z,86.83
2018-11-22T23:20:32.501Z,86.25
2018-11-22T23:22:59.777Z,85.42
2018-11-22T23:25:27.601Z,84.75
2018-11-22T23:27:55.460Z,83.45
2018-11-22T23:30:26.431Z,83.26
2018-11-22T23:32:56.549Z,83.70
2018-11-22T23:35:23.408Z,83.95
2018-11-22T23:37:51.017Z,84.21
2018-11-22T23:40:20.519Z,84.28
2018-11-22T23:42:47.789Z,84.00
2018-11-22T23:45:17.267Z,83.90
2018-11-22T23:47:44.884Z,83.72
2018-11-22T23:50:18.370Z,83.54
2018-11-22T23:55:19.082Z,83.44
2018-11-22T23:57:46.535Z,83.20
